createdAt,value
2023-04-02T00:01:44.224Z,53.28
2023-04-02T00:04:09.230Z,53.07
2023-04-02T00:06:40.651Z,53.06
2023-04-02T00:08:45.569Z,53.02
2023-04-02T00:10:52.521Z,53.46
2023-04-02T00:13:05.301Z,53.19
2023-04-02T00:15:16.102Z,53.32
2023-04-02T00:17:26.301Z,53.33
2023-04-02T00:19:36.924Z,53.11
2023-04-02T00:21:42.385Z,53.06
2023-04-02T00:23:47.912Z,53.13
2023-04-02T00:25:52.872Z,53.14
2023-04-02T00:27:58.877Z,53.19
2023-04-02T00:30:04.471Z,53.04
2023-04-02T00:32:09.317Z,52.89
2023-04-02T00:34:23.876Z,53.18
2023-04-02T00:36:34.150Z,53.16
2023-04-02T00:38:40.531Z,53.02
2023-04-02T00:40:45.638Z,53.08
2023-04-02T00:42:52.168Z,52.89
2023-04-02T00:44:58.887Z,53.04
2023-04-02T00:47:10.407Z,53.05
2023-04-02T00:49:26.521Z,53.00
2023-04-02T00:51:37.643Z,53.18
2023-04-02T00:53:43.542Z,53.04
2023-04-02T00:55:48.749Z,53.02
2023-04-02T00:57:55.017Z,53.18
2023-04-02T01:00:04.029Z,53.21
2023-04-02T01:02:29.641Z,53.17
2023-04-02T01:04:38.553Z,53.17
2023-04-02T01:06:46.728Z,53.21
2023-04-02T01:09:04.462Z,53.00
2023-04-02T01:11:20.036Z,53.03
2023-04-02T01:13:33.976Z,52.71
2023-04-02T01:15:44.252Z,52.86
2023-04-02T01:18:06.628Z,52.81
2023-04-02T01:20:47.220Z,52.92
2023-04-02T01:22:59.221Z,52.98
2023-04-02T01:25:04.556Z,52.96
2023-04-02T01:27:17.484Z,52.85
2023-04-02T01:29:28.735Z,52.78
2023-04-02T01:31:34.793Z,52.94
2023-04-02T01:33:39.986Z,53.09
2023-04-02T01:35:48.403Z,52.95
2023-04-02T01:38:03.424Z,53.02
2023-04-02T01:40:26.074Z,53.08
2023-04-02T01:42:37.448Z,52.96
2023-04-02T01:44:49.333Z,52.94
2023-04-02T01:46:55.716Z,52.98
2023-04-02T01:49:04.184Z,52.77
2023-04-02T01:51:11.025Z,52.79
2023-04-02T01:53:18.898Z,53.11
2023-04-02T01:55:33.040Z,52.91
2023-04-02T01:57:38.416Z,52.84
2023-04-02T01:59:46.595Z,52.71
2023-04-02T02:01:57.110Z,53.04
2023-04-02T02:04:04.396Z,53.14
2023-04-02T02:06:10.210Z,53.16
2023-04-02T02:08:27.233Z,52.93
2023-04-02T02:10:38.146Z,52.86
2023-04-02T02:12:46.087Z,52.83
2023-04-02T02:14:54.725Z,53.02
2023-04-02T02:17:13.508Z,52.81
2023-04-02T02:19:25.771Z,52.91
2023-04-02T02:21:41.632Z,53.07
2023-04-02T02:23:46.701Z,52.95
2023-04-02T02:25:51.698Z,53.13
2023-04-02T02:28:06.001Z,53.06
2023-04-02T02:30:19.647Z,53.04
2023-04-02T02:32:28.381Z,53.00
2023-04-02T02:34:39.979Z,53.08
2023-04-02T02:36:54.799Z,52.91
2023-04-02T02:39:05.339Z,52.86
2023-04-02T02:41:24.782Z,53.15
2023-04-02T02:43:31.528Z,53.17
2023-04-02T02:45:42.226Z,52.88
2023-04-02T02:47:48.921Z,53.00
2023-04-02T02:49:59.054Z,52.91
2023-04-02T02:52:15.618Z,52.93
2023-04-02T02:54:34.167Z,52.94
2023-04-02T02:56:44.858Z,52.93
2023-04-02T02:58:52.257Z,53.36
2023-04-02T03:01:04.528Z,52.99
2023-04-02T03:03:15.383Z,52.98
2023-04-02T03:05:21.947Z,53.01
2023-04-02T03:07:31.095Z,53.00
2023-04-02T03:09:44.790Z,53.14
2023-04-02T03:11:55.761Z,53.16
2023-04-02T03:14:11.015Z,52.98
2023-04-02T03:16:24.394Z,53.03
2023-04-02T03:18:39.036Z,53.35
2023-04-02T03:20:51.625Z,53.15
2023-04-02T03:23:03.519Z,53.36
2023-04-02T03:25:19.274Z,53.16
2023-04-02T03:27:29.082Z,53.37
2023-04-02T03:29:37.419Z,53.48
2023-04-02T03:31:50.131Z,53.32
2023-04-02T03:34:00.154Z,53.47
2023-04-02T03:36:21.709Z,53.44
2023-04-02T03:38:31.638Z,53.26
2023-04-02T03:40:42.165Z,53.41
2023-04-02T03:42:52.268Z,53.42
2023-04-02T03:45:01.620Z,53.26
2023-04-02T03:47:18.008Z,53.30
2023-04-02T03:49:32.344Z,53.34
2023-04-02T03:51:43.205Z,53.39
2023-04-02T03:53:49.816Z,53.47
2023-04-02T03:55:56.036Z,53.30
2023-04-02T03:58:05.220Z,53.52
2023-04-02T04:00:20.278Z,53.39
2023-04-02T04:02:44.246Z,53.55
2023-04-02T04:04:53.227Z,53.41
2023-04-02T04:07:00.316Z,53.59
2023-04-02T04:09:12.748Z,53.33
2023-04-02T04:11:21.857Z,53.26
2023-04-02T04:13:34.806Z,53.62
2023-04-02T04:15:44.990Z,53.37
2023-04-02T04:18:02.733Z,53.46
2023-04-02T04:20:22.108Z,53.41
2023-04-02T04:22:34.156Z,53.42
2023-04-02T04:25:21.249Z,53.50
2023-04-02T04:27:34.872Z,53.53
2023-04-02T04:29:49.441Z,53.16
2023-04-02T04:31:55.957Z,53.40
2023-04-02T04:34:16.619Z,53.31
2023-04-02T04:36:32.890Z,53.26
2023-04-02T04:38:45.292Z,53.42
2023-04-02T04:40:56.790Z,53.71
2023-04-02T04:43:09.046Z,53.60
2023-04-02T04:45:24.540Z,53.70
2023-04-02T04:47:35.470Z,53.52
2023-04-02T04:49:48.171Z,53.56
2023-04-02T04:51:59.154Z,53.60
2023-04-02T04:54:04.266Z,53.51
2023-04-02T04:56:19.221Z,53.80
2023-04-02T04:58:35.082Z,53.84
2023-04-02T05:00:45.481Z,53.52
2023-04-02T05:02:56.569Z,53.66
2023-04-02T05:05:06.914Z,53.56
2023-04-02T05:07:18.674Z,53.73
2023-04-02T05:09:30.147Z,53.72
2023-04-02T05:11:40.076Z,53.88
2023-04-02T05:13:52.134Z,53.66
2023-04-02T05:16:07.914Z,53.73
2023-04-02T05:18:21.806Z,53.75
2023-04-02T05:20:33.329Z,53.73
2023-04-02T05:22:45.091Z,53.73
2023-04-02T05:24:59.210Z,54.02
2023-04-02T05:27:08.287Z,54.03
2023-04-02T05:29:18.608Z,54.16
2023-04-02T05:31:29.047Z,54.15
2023-04-02T05:33:36.343Z,53.83
2023-04-02T05:35:50.258Z,54.07
2023-04-02T05:37:55.521Z,54.09
2023-04-02T05:40:08.508Z,53.85
2023-04-02T05:42:21.493Z,53.99
2023-04-02T05:44:35.435Z,53.96
2023-04-02T05:46:50.513Z,54.00
2023-04-02T05:49:01.614Z,54.18
2023-04-02T05:51:15.064Z,53.98
2023-04-02T05:53:24.245Z,54.06
2023-04-02T05:55:37.652Z,53.94
2023-04-02T05:57:56.849Z,53.93
2023-04-02T06:00:22.068Z,54.35
2023-04-02T06:02:35.276Z,54.21
2023-04-02T06:04:48.583Z,54.16
2023-04-02T06:07:01.943Z,54.13
2023-04-02T06:09:14.774Z,54.34
2023-04-02T06:11:25.942Z,54.18
2023-04-02T06:13:31.908Z,54.07
2023-04-02T06:15:40.284Z,54.24
2023-04-02T06:17:56.943Z,54.06
2023-04-02T06:20:05.052Z,54.03
2023-04-02T06:22:23.363Z,54.08
2023-04-02T06:24:34.169Z,53.97
2023-04-02T06:26:44.607Z,54.15
2023-04-02T06:28:58.874Z,54.15
2023-04-02T06:31:13.264Z,54.05
2023-04-02T06:33:18.441Z,53.95
2023-04-02T06:35:24.607Z,54.14
2023-04-02T06:37:47.484Z,54.19
2023-04-02T06:39:56.492Z,54.00
2023-04-02T06:42:05.770Z,54.06
2023-04-02T06:44:34.542Z,54.13
2023-04-02T06:47:06.061Z,54.30
2023-04-02T06:49:26.579Z,54.18
2023-04-02T06:51:39.818Z,54.19
2023-04-02T06:53:49.694Z,54.20
2023-04-02T06:56:03.794Z,54.05
2023-04-02T06:58:12.274Z,54.13
2023-04-02T07:00:28.874Z,54.25
2023-04-02T07:02:38.389Z,53.96
2023-04-02T07:04:45.880Z,54.12
2023-04-02T07:06:51.896Z,53.96
2023-04-02T07:09:00.788Z,54.27
2023-04-02T07:11:06.082Z,53.92
2023-04-02T07:13:12.943Z,54.21
2023-04-02T07:15:19.610Z,53.89
2023-04-02T07:17:24.833Z,54.15
2023-04-02T07:19:29.713Z,54.25
2023-04-02T07:21:36.417Z,54.14
2023-04-02T07:23:42.145Z,54.22
2023-04-02T07:25:49.787Z,54.12
2023-04-02T07:27:56.044Z,54.05
2023-04-02T07:30:01.166Z,53.90
2023-04-02T07:32:06.268Z,53.97
2023-04-02T07:34:11.767Z,54.09
2023-04-02T07:36:18.457Z,54.03
2023-04-02T07:38:23.619Z,53.94
2023-04-02T07:40:28.994Z,53.99
2023-04-02T07:42:36.489Z,53.97
2023-04-02T07:44:41.712Z,54.08
2023-04-02T07:46:46.675Z,54.24
2023-04-02T07:48:51.630Z,54.14
2023-04-02T07:50:56.664Z,54.05
2023-04-02T07:53:01.561Z,53.95
2023-04-02T07:55:06.930Z,54.04
2023-04-02T07:57:11.904Z,53.86
2023-04-02T07:59:20.780Z,54.03
2023-04-02T08:01:27.501Z,53.90
2023-04-02T08:03:33.150Z,53.81
2023-04-02T08:05:38.309Z,53.59
2023-04-02T08:07:43.557Z,53.72
2023-04-02T08:09:48.867Z,53.99
2023-04-02T08:11:53.828Z,53.89
2023-04-02T08:13:59.357Z,53.89
2023-04-02T08:16:07.935Z,54.13
2023-04-02T08:18:13.810Z,54.23
2023-04-02T08:20:20.224Z,54.28
2023-04-02T08:22:25.284Z,54.17
2023-04-02T08:24:30.115Z,54.11
2023-04-02T08:26:35.054Z,54.20
2023-04-02T08:28:40.092Z,53.94
2023-04-02T08:30:45.530Z,54.19
2023-04-02T08:32:53.127Z,53.97
2023-04-02T08:34:58.200Z,54.27
2023-04-02T08:37:03.056Z,54.14
2023-04-02T08:39:11.276Z,54.19
2023-04-02T08:41:28.034Z,54.24
2023-04-02T08:43:58.150Z,53.95
2023-04-02T08:46:10.567Z,54.06
2023-04-02T08:48:18.836Z,53.84
2023-04-02T08:50:31.357Z,54.00
2023-04-02T08:52:39.106Z,54.11
2023-04-02T08:54:45.408Z,53.80
2023-04-02T08:56:55.132Z,54.02
2023-04-02T08:59:02.303Z,53.86
2023-04-02T09:01:10.282Z,54.22
2023-04-02T09:03:22.897Z,54.24
2023-04-02T09:05:31.510Z,54.33
2023-04-02T09:07:36.765Z,54.34
2023-04-02T09:09:41.890Z,54.18
2023-04-02T09:11:55.289Z,54.12
2023-04-02T09:14:02.468Z,54.07
2023-04-02T09:16:12.867Z,54.54
2023-04-02T09:18:21.771Z,54.21
2023-04-02T09:20:29.501Z,54.27
2023-04-02T09:22:36.596Z,54.30
2023-04-02T09:24:41.473Z,54.26
2023-04-02T09:26:46.401Z,54.59
2023-04-02T09:28:52.165Z,54.82
2023-04-02T09:31:06.884Z,54.84
2023-04-02T09:33:13.095Z,54.63
2023-04-02T09:35:39.023Z,54.61
2023-04-02T09:37:49.256Z,54.85
2023-04-02T09:48:53.591Z,55.13
2023-04-02T09:51:14.915Z,54.97
2023-04-02T09:53:32.435Z,54.84
2023-04-02T09:55:40.897Z,55.00
2023-04-02T09:57:46.413Z,54.86
2023-04-02T09:59:51.401Z,54.95
2023-04-02T10:02:03.803Z,55.34
2023-04-02T10:04:29.743Z,55.31
2023-04-02T10:06:38.340Z,55.55
2023-04-02T10:08:45.525Z,55.58
2023-04-02T10:10:53.509Z,55.47
2023-04-02T10:13:05.622Z,55.39
2023-04-02T10:15:19.190Z,55.10
2023-04-02T10:17:28.310Z,55.13
2023-04-02T10:19:37.968Z,55.23
2023-04-02T10:21:49.341Z,55.43
2023-04-02T10:23:54.707Z,55.55
2023-04-02T10:26:10.210Z,55.63
2023-04-02T10:28:27.940Z,55.83
2023-04-02T10:30:42.443Z,55.30
2023-04-02T10:32:53.351Z,55.13
2023-04-02T10:35:02.043Z,55.41
2023-04-02T10:37:31.835Z,55.36
2023-04-02T10:39:41.840Z,55.27
2023-04-02T10:41:53.088Z,54.91
2023-04-02T10:44:24.401Z,54.83
2023-04-02T10:46:35.909Z,54.90
2023-04-02T10:48:50.062Z,54.93
2023-04-02T10:51:03.623Z,55.01
2023-04-02T10:53:17.517Z,55.04
2023-04-02T10:55:26.873Z,55.20
2023-04-02T10:57:40.912Z,54.84
2023-04-02T10:59:50.077Z,55.13
2023-04-02T11:01:57.654Z,55.14
2023-04-02T11:04:06.244Z,55.19
2023-04-02T11:06:20.978Z,55.46
2023-04-02T11:08:33.434Z,55.26
2023-04-02T11:10:43.227Z,55.54
2023-04-02T11:12:55.917Z,55.43
2023-04-02T11:15:02.612Z,55.16
2023-04-02T11:17:07.976Z,55.21
2023-04-02T11:19:28.575Z,55.31
2023-04-02T11:21:57.115Z,55.16
2023-04-02T11:24:07.229Z,55.42
2023-04-02T11:26:33.096Z,55.27
2023-04-02T11:28:38.465Z,55.27
2023-04-02T11:30:52.685Z,55.64
2023-04-02T11:33:20.861Z,55.77
2023-04-02T11:35:43.410Z,55.49
2023-04-02T11:37:52.029Z,55.52
2023-04-02T11:40:02.293Z,55.47
2023-04-02T11:42:25.205Z,55.48
2023-04-02T11:44:30.337Z,55.51
2023-04-02T11:46:56.191Z,55.68
2023-04-02T11:49:41.096Z,55.45
2023-04-02T11:52:02.162Z,55.26
2023-04-02T11:54:27.312Z,55.24
2023-04-02T11:56:41.844Z,55.26
2023-04-02T11:59:06.270Z,55.10
2023-04-02T12:01:49.951Z,54.92
2023-04-02T12:04:31.729Z,55.14
2023-04-02T12:06:52.896Z,55.01
2023-04-02T12:09:23.066Z,55.43
2023-04-02T12:11:38.203Z,55.13
2023-04-02T12:14:01.942Z,55.07
2023-04-02T12:16:07.485Z,55.21
2023-04-02T12:18:20.366Z,54.82
2023-04-02T12:20:34.798Z,54.70
2023-04-02T12:22:53.950Z,55.00
2023-04-02T12:25:02.995Z,54.62
2023-04-02T12:27:15.816Z,55.09
2023-04-02T12:29:29.132Z,54.91
2023-04-02T12:31:35.072Z,54.73
2023-04-02T12:33:41.890Z,55.20
2023-04-02T12:35:48.117Z,54.94
2023-04-02T12:37:58.240Z,55.05
2023-04-02T12:40:07.958Z,54.96
2023-04-02T12:42:31.697Z,55.17
2023-04-02T12:44:36.602Z,55.05
2023-04-02T12:46:42.863Z,55.19
2023-04-02T12:48:47.848Z,55.08
2023-04-02T12:50:54.020Z,55.06
2023-04-02T12:53:02.006Z,55.19
2023-04-02T12:55:09.095Z,55.06
2023-04-02T12:57:44.813Z,55.17
2023-04-02T12:59:49.848Z,54.77
2023-04-02T13:02:00.057Z,55.01
2023-04-02T13:04:07.915Z,55.12
2023-04-02T13:06:27.376Z,54.73
2023-04-02T13:08:45.945Z,54.94
2023-04-02T13:10:59.712Z,55.11
2023-04-02T13:13:12.504Z,55.26
2023-04-02T13:15:27.255Z,55.39
2023-04-02T13:17:42.582Z,55.53
2023-04-02T13:19:48.274Z,55.47
2023-04-02T13:21:53.691Z,55.34
2023-04-02T13:24:01.291Z,55.34
2023-04-02T13:26:19.500Z,55.33
2023-04-02T13:28:25.763Z,55.49
2023-04-02T13:30:31.899Z,55.51
2023-04-02T13:32:38.019Z,55.50
2023-04-02T13:34:43.818Z,55.85
2023-04-02T13:36:49.699Z,55.84
2023-04-02T13:38:55.224Z,55.68
2023-04-02T13:41:02.594Z,55.79
2023-04-02T13:43:08.026Z,55.70
2023-04-02T13:45:23.937Z,56.08
2023-04-02T13:47:28.810Z,55.98
2023-04-02T13:49:34.819Z,56.09
2023-04-02T13:51:46.706Z,55.88
2023-04-02T13:53:58.161Z,55.81
2023-04-02T13:56:09.015Z,56.06
2023-04-02T13:58:14.139Z,55.82
2023-04-02T14:00:20.922Z,56.17
2023-04-02T14:02:28.137Z,56.25
2023-04-02T14:04:38.535Z,56.38
2023-04-02T14:07:04.701Z,56.15
2023-04-02T14:09:18.609Z,56.30
2023-04-02T14:11:38.918Z,56.49
2023-04-02T14:14:00.604Z,56.39
2023-04-02T14:16:20.825Z,56.41
2023-04-02T14:18:42.934Z,56.50
2023-04-02T14:20:57.105Z,56.37
2023-04-02T14:23:15.934Z,56.39
2023-04-02T14:25:29.118Z,56.13
2023-04-02T14:27:47.783Z,56.06
2023-04-02T14:30:01.046Z,56.14
2023-04-02T14:32:11.765Z,56.26
2023-04-02T14:34:22.591Z,55.83
2023-04-02T14:36:33.614Z,56.22
2023-04-02T14:38:47.148Z,55.96
2023-04-02T14:40:57.362Z,55.90
2023-04-02T14:43:08.452Z,55.64
2023-04-02T14:45:20.239Z,55.80
2023-04-02T14:47:30.755Z,55.96
2023-04-02T14:49:40.226Z,55.97
2023-04-02T14:51:50.000Z,55.79
2023-04-02T14:54:03.100Z,55.73
2023-04-02T14:56:11.781Z,55.99
2023-04-02T14:58:25.420Z,55.91
2023-04-02T15:00:34.945Z,55.86
2023-04-02T15:06:26.784Z,55.81
2023-04-02T15:08:35.553Z,55.81
2023-04-02T15:10:47.142Z,55.94
2023-04-02T15:12:55.274Z,55.64
2023-04-02T15:15:10.705Z,55.86
2023-04-02T15:17:18.092Z,55.50
2023-04-02T15:19:23.771Z,55.58
2023-04-02T15:22:01.069Z,55.29
2023-04-02T15:24:20.191Z,55.38
2023-04-02T15:26:34.632Z,54.94
2023-04-02T15:28:45.855Z,54.98
2023-04-02T15:31:00.065Z,55.14
2023-04-02T15:33:37.362Z,54.90
2023-04-02T15:36:00.905Z,55.00
2023-04-02T15:38:19.900Z,54.73
2023-04-02T15:40:47.266Z,54.64
2023-04-02T15:43:04.089Z,54.62
2023-04-02T15:45:39.437Z,54.52
2023-04-02T15:48:03.512Z,54.57
2023-04-02T15:50:25.299Z,54.55
2023-04-02T15:52:41.121Z,54.77
2023-04-02T15:55:16.456Z,54.46
2023-04-02T15:57:56.266Z,54.68
2023-04-02T16:00:23.541Z,54.62
2023-04-02T16:03:07.168Z,54.48
2023-04-02T16:05:24.924Z,54.33
2023-04-02T16:08:00.352Z,54.56
2023-04-02T16:10:14.404Z,54.49
2023-04-02T16:12:21.946Z,54.27
2023-04-02T16:14:32.841Z,54.47
2023-04-02T16:16:38.806Z,54.21
2023-04-02T16:18:55.783Z,54.27
2023-04-02T16:21:05.673Z,54.68
2023-04-02T16:23:17.825Z,54.43
2023-04-02T16:25:28.653Z,54.37
2023-04-02T16:27:39.397Z,54.60
2023-04-02T16:30:00.216Z,54.72
2023-04-02T16:32:12.769Z,54.61
2023-04-02T16:34:32.389Z,54.59
2023-04-02T16:36:52.627Z,54.93
2023-04-02T16:39:05.036Z,54.74
2023-04-02T16:41:19.691Z,55.11
2023-04-02T16:43:33.365Z,55.00
2023-04-02T16:45:47.162Z,54.82
2023-04-02T16:48:04.853Z,54.93
2023-04-02T16:50:22.015Z,54.71
2023-04-02T16:52:45.175Z,54.60
2023-04-02T16:55:00.338Z,54.47
2023-04-02T16:57:27.270Z,54.39
2023-04-02T16:59:44.467Z,54.49
2023-04-02T17:01:58.417Z,54.40
2023-04-02T17:04:14.361Z,54.22
2023-04-02T17:06:27.084Z,54.59
2023-04-02T17:08:41.967Z,54.48
2023-04-02T17:10:53.598Z,54.34
2023-04-02T17:13:11.018Z,54.43
2023-04-02T17:15:27.979Z,54.33
2023-04-02T17:17:33.565Z,54.40
2023-04-02T17:19:38.789Z,54.24
2023-04-02T17:21:47.292Z,54.08
2023-04-02T17:23:58.812Z,54.08
2023-04-02T17:26:09.440Z,54.29
2023-04-02T17:28:18.188Z,54.14
2023-04-02T17:30:37.557Z,53.94
2023-04-02T17:32:43.111Z,54.17
2023-04-02T17:34:49.008Z,54.25
2023-04-02T17:37:09.040Z,53.92
2023-04-02T17:39:26.112Z,53.67
2023-04-02T17:41:38.523Z,53.83
2023-04-02T17:43:51.154Z,53.74
2023-04-02T17:45:59.522Z,53.77
2023-04-02T17:48:09.340Z,53.85
2023-04-02T17:50:37.402Z,53.85
2023-04-02T17:52:48.928Z,53.84
2023-04-02T17:55:05.709Z,53.47
2023-04-02T17:57:31.148Z,53.34
2023-04-02T17:59:58.596Z,53.22
2023-04-02T18:02:22.385Z,53.31
2023-04-02T18:04:40.112Z,53.05
2023-04-02T18:06:58.206Z,52.90
2023-04-02T18:09:18.282Z,52.94
2023-04-02T18:11:38.939Z,52.72
2023-04-02T18:13:48.794Z,52.41
2023-04-02T18:16:06.894Z,52.52
2023-04-02T18:18:23.665Z,52.51
2023-04-02T18:20:35.140Z,52.42
2023-04-02T18:22:47.993Z,52.06
2023-04-02T18:25:15.237Z,52.24
2023-04-02T18:27:34.806Z,52.20
2023-04-02T18:29:48.368Z,52.04
2023-04-02T18:32:01.452Z,51.85
2023-04-02T18:34:32.193Z,51.61
2023-04-02T18:36:47.848Z,51.75
2023-04-02T18:39:02.112Z,51.96
2023-04-02T18:41:21.751Z,51.84
2023-04-02T18:43:40.571Z,51.57
2023-04-02T18:45:57.856Z,51.47
2023-04-02T18:48:11.538Z,51.24
2023-04-02T18:50:20.680Z,51.33
2023-04-02T18:52:27.429Z,51.02
2023-04-02T18:54:36.976Z,51.08
2023-04-02T18:56:42.358Z,51.23
2023-04-02T18:58:59.512Z,50.84
2023-04-02T19:01:08.256Z,51.13
2023-04-02T19:03:19.485Z,50.84
2023-04-02T19:05:40.725Z,50.92
2023-04-02T19:07:47.292Z,50.89
2023-04-02T19:09:54.675Z,51.01
2023-04-02T19:11:59.705Z,50.81
2023-04-02T19:14:13.423Z,50.77
2023-04-02T19:16:56.267Z,50.80
2023-04-02T19:19:11.894Z,50.77
2023-04-02T19:21:27.232Z,50.58
2023-04-02T19:23:48.568Z,50.47
2023-04-02T19:26:03.088Z,50.59
2023-04-02T19:28:14.999Z,50.55
2023-04-02T19:31:07.526Z,50.58
2023-04-02T19:33:31.786Z,50.58
2023-04-02T19:35:45.081Z,50.72
2023-04-02T19:37:57.101Z,51.05
2023-04-02T19:40:22.499Z,50.48
2023-04-02T19:42:42.122Z,50.69
2023-04-02T19:44:53.990Z,50.62
2023-04-02T19:47:01.941Z,50.48
2023-04-02T19:49:11.207Z,50.42
2023-04-02T19:51:16.042Z,50.81
2023-04-02T19:55:45.789Z,50.73
2023-04-02T19:57:52.799Z,50.43
2023-04-02T19:59:59.851Z,50.66
2023-04-02T20:02:10.613Z,50.56
2023-04-02T20:04:16.410Z,50.48
2023-04-02T20:06:24.089Z,50.36
2023-04-02T20:08:29.203Z,50.37
2023-04-02T20:10:34.223Z,50.60
2023-04-02T20:12:39.343Z,50.42
2023-04-02T20:14:44.425Z,50.53
2023-04-02T20:16:49.454Z,50.39
2023-04-02T20:18:57.107Z,50.53
2023-04-02T20:21:06.100Z,50.54
2023-04-02T20:23:11.020Z,50.45
2023-04-02T20:25:16.279Z,50.37
2023-04-02T20:27:21.275Z,50.44
2023-04-02T20:29:28.306Z,50.20
2023-04-02T20:31:33.545Z,50.39
2023-04-02T20:33:38.937Z,50.50
2023-04-02T20:35:46.717Z,50.35
2023-04-02T20:37:51.790Z,50.20
2023-04-02T20:39:57.959Z,50.40
2023-04-02T20:42:03.736Z,50.48
2023-04-02T20:44:08.612Z,50.21
2023-04-02T20:46:16.083Z,50.29
2023-04-02T20:48:21.893Z,50.23
2023-04-02T20:50:26.908Z,50.41
2023-04-02T20:52:36.018Z,50.54
2023-04-02T20:54:41.201Z,50.47
2023-04-02T20:56:46.118Z,50.40
2023-04-02T20:58:51.070Z,50.41
2023-04-02T21:00:55.893Z,50.52
2023-04-02T21:03:02.747Z,50.23
2023-04-02T21:05:08.514Z,50.51
2023-04-02T21:07:13.562Z,50.37
2023-04-02T21:09:22.123Z,50.52
2023-04-02T21:11:28.080Z,50.58
2023-04-02T21:13:33.572Z,50.36
2023-04-02T21:15:38.654Z,50.30
2023-04-02T21:17:43.727Z,50.41
2023-04-02T21:19:48.786Z,50.46
2023-04-02T21:21:53.742Z,50.44
2023-04-02T21:24:00.274Z,50.24
2023-04-02T21:26:09.333Z,50.20
2023-04-02T21:28:14.419Z,50.37
2023-04-02T21:30:19.588Z,50.25
2023-04-02T21:32:24.580Z,50.17
2023-04-02T21:34:29.497Z,50.31
2023-04-02T21:36:37.200Z,50.45
2023-04-02T21:38:45.439Z,50.25
2023-04-02T21:40:50.427Z,50.48
2023-04-02T21:42:58.244Z,50.26
2023-04-02T21:45:03.133Z,50.37
2023-04-02T21:47:08.160Z,50.41
2023-04-02T21:49:14.621Z,50.45
2023-04-02T21:51:21.955Z,50.41
2023-04-02T21:53:27.314Z,50.21
2023-04-02T21:55:32.336Z,50.17
2023-04-02T21:57:37.277Z,50.56
2023-04-02T21:59:44.745Z,50.30
2023-04-02T22:01:52.577Z,50.42
2023-04-02T22:03:58.162Z,50.09
2023-04-02T22:06:04.970Z,50.17
2023-04-02T22:08:09.865Z,50.00
2023-04-02T22:10:14.851Z,50.31
2023-04-02T22:12:19.705Z,50.05
2023-04-02T22:14:25.269Z,50.24
2023-04-02T22:16:34.339Z,50.04
2023-04-02T22:18:40.315Z,49.89
2023-04-02T22:20:45.419Z,49.96
2023-04-02T22:22:50.294Z,49.88
2023-04-02T22:24:56.421Z,49.86
2023-04-02T22:27:01.527Z,50.18
2023-04-02T22:29:07.554Z,49.96
2023-04-02T22:31:15.390Z,49.80
2023-04-02T22:33:23.287Z,49.78
2023-04-02T22:35:28.456Z,49.89
2023-04-02T22:37:34.202Z,49.99
2023-04-02T22:39:39.089Z,50.05
2023-04-02T22:41:43.921Z,49.94
2023-04-02T22:43:49.684Z,49.93
2023-04-02T22:45:54.554Z,50.04
2023-04-02T22:47:59.483Z,49.87
2023-04-02T22:50:07.681Z,49.97
2023-04-02T22:52:12.674Z,49.83
2023-04-02T22:54:17.736Z,49.74
2023-04-02T22:56:24.753Z,49.73
2023-04-02T22:58:29.980Z,50.05
2023-04-02T23:00:35.394Z,49.86
2023-04-02T23:02:40.692Z,49.86
2023-04-02T23:04:45.586Z,49.70
2023-04-02T23:06:53.177Z,49.57
2023-04-02T23:08:58.106Z,49.60
2023-04-02T23:11:04.551Z,49.52
2023-04-02T23:13:09.536Z,49.87
2023-04-02T23:15:14.571Z,49.77
2023-04-02T23:17:19.422Z,49.93
2023-04-02T23:19:24.228Z,49.88
2023-04-02T23:21:29.753Z,49.80
2023-04-02T23:23:37.686Z,49.64
2023-04-02T23:25:43.312Z,49.68
2023-04-02T23:27:48.165Z,49.64
2023-04-02T23:29:53.489Z,49.75
2023-04-02T23:31:58.382Z,49.52
2023-04-02T23:34:03.442Z,49.63
2023-04-02T23:36:12.892Z,49.65
2023-04-02T23:38:17.794Z,49.61
2023-04-02T23:40:25.262Z,49.50
2023-04-02T23:42:30.668Z,49.66
2023-04-02T23:44:35.826Z,49.39
2023-04-02T23:46:41.111Z,49.67
2023-04-02T23:48:46.996Z,49.62
2023-04-02T23:50:52.100Z,49.51
2023-04-02T23:52:56.945Z,49.59
2023-04-02T23:55:01.880Z,49.38
2023-04-02T23:57:09.374Z,49.45
2023-04-02T23:59:14.556Z,49.36
